• Join FlightAware (Why Join?)
  • Login
  • US Flag 
10:47AM EDT


 

Airport Tracker/Info


-or-


 

Live Flight TrackerFlight Track Log ✈ CTL61 ✈ 12-Jun-2013 ✈ KBUY - KBLF

Flight Track Log - Related Links

Times and Time Zones

All times are in EDT time to prevent confusion due to time zone crossing. See the CTL61 flight status page for this flight to view local times or setup timezone preferences in your user account.

Time Position Orientation Groundspeed Altitude Reporting Facility
EDT Latitude Longitude Course Direction KTS MPH feet Rate Location/Type
09:15PM 36.1726 -79.6473 312° West  Level FlightAware Approximate
09:16PM 36.2000 -79.6844 312° West  Level FlightAware Approximate
09:17PM 36.2273 -79.7216 312° West  Level FlightAware Approximate
09:18PM 36.2547 -79.7588 312° West  Level FlightAware Approximate
09:19PM 36.2820 -79.7961 312° West  Level FlightAware Approximate
09:20PM 36.3094 -79.8333 312° West  Level FlightAware Approximate
09:21PM 36.3367 -79.8706 312° West  Level FlightAware Approximate
09:22PM 36.3639 -79.9078 312° West  Level FlightAware Approximate
09:23PM 36.3911 -79.9450 312° West  Level FlightAware Approximate
09:24PM 36.4184 -79.9823 312° West  Level FlightAware Approximate
09:24PM 36.4150 -80.0072 312° West 143 165 8,100  Level Indianapolis Center
09:25PM 36.4455 -80.0196 312° West  Level FlightAware Approximate
09:25PM 36.4489 -80.0525 313° West 148 170 8,000  Level Indianapolis Center
09:26PM 36.4727 -80.0569 312° West  Level FlightAware Approximate
09:26PM 36.4750 -80.0908 310° West 149 171 8,000  Level Indianapolis Center
09:27PM 36.4999 -80.0942 312° West  Level FlightAware Approximate
09:27PM 36.5031 -80.1269 314° West 150 173 8,100  Level Indianapolis Center
09:28PM 36.5271 -80.1316 312° West  Level FlightAware Approximate
09:28PM 36.5353 -80.1731 311° West 150 173 8,100  Level Indianapolis Center
09:29PM 36.5542 -80.1690 312° West  Level FlightAware Approximate
09:29PM 36.5661 -80.2158 312° West 153 176 8,100  Level Atlanta Center
09:30PM 36.5922 -80.2561 309° West 155 178 8,100  Level Atlanta Center
09:31PM 36.6206 -80.2933 313° West 155 178 8,100 -60 Level Atlanta Center
09:32PM 36.6486 -80.3283 315° West 155 178 8,000 -60 Descending Atlanta Center
09:33PM 36.6728 -80.3633 311° West 155 178 8,000  Level Atlanta Center
09:34PM 36.7008 -80.4011 313° West 155 178 8,000  Level Atlanta Center
09:35PM 36.7269 -80.4386 311° West 155 178 8,100  Climbing Atlanta Center
09:36PM 36.7575 -80.4789 313° West 149 171 8,100 -60 Level Atlanta Center
09:37PM 36.7836 -80.5189 309° West 149 171 8,000 -60 Descending Atlanta Center
09:38PM 36.8097 -80.5567 311° West 149 171 8,000  Level Atlanta Center
09:39PM 36.8378 -80.5919 315° West 149 171 8,000  Level Atlanta Center
09:40PM 36.8658 -80.6244 317° Northwest 149 171 8,100  Climbing Atlanta Center
09:41PM 36.8897 -80.6650 306° West 149 171 8,100 -60 Level Atlanta Center
09:42PM 36.9200 -80.7025 315° West 149 171 8,000 -60 Descending Atlanta Center
09:43PM 36.9503 -80.7453 312° West 149 171 8,000  Level Atlanta Center
09:44PM 36.9786 -80.7833 313° West 149 171 8,000  Level Atlanta Center
09:45PM 37.0044 -80.8211 311° West 149 171 8,000  Level Atlanta Center
09:46PM 37.0325 -80.8589 313° West 149 171 8,000  Level Atlanta Center
09:48PM 37.0983 -80.9419 315° West 146 168 8,100  Climbing Indianapolis Center
09:49PM 37.1261 -80.9764 315° West 145 167 8,100 -120 Level Indianapolis Center
09:50PM 37.1569 -81.0114 318° Northwest 153 176 7,900 -600 Descending Indianapolis Center
09:51PM 37.1972 -81.0533 320° Northwest 161 185 7,000 -900 Descending Indianapolis Center